Terminal Aerodrome Forecast
Issued by NWS Pocatello, ID

Home | Current Version | Previous Version | Text Only | Print | Product List | Glossary On
Versions: 1 2 3 4 5 6 7 8 9 10 11 12 13
000
FTUS45 KPIH 301100
TAFIDA
TAF
KIDA 301120Z 3012/3112 22010KT P6SM SCT070 BKN200
     FM301800 23020G30KT 6SM BLDU VCTS BKN120CB
     FM310200 20014KT P6SM VCSH BKN070=

USA.gov is the U.S. government's official web portal to all federal, state and local government web resources and services.